Back to Top

Language: 

My Weather Underground Personal Weather Station Historical Data with Graphs...

Delerius Weather Station Historical Data
Daily Summary for November 27, 2017 Units:  English    Metric   Both
« Previous Day
Next Day »
Daily Weekly Monthly Yearly Custom
  High: Low: Average:
Temperature: 49.1 °F 38.8 °F 43.8 °F
Dew Point: 46.9 °F 35.3 °F 40 °F
Humidity: 93 % 81 % 87 %
Wind Speed: 20.0 mph 2.0 mph 11.2 mph
Wind Gust: 34.0 mph - -
Wind:- - West
Pressure: 29.93 in 29.70 in -
Precipitation: 0.08 in    
Historical Graphs
 
 
Tabular Data for November 27, 2017
Time Temperature Dew Point Pressure Wind Wind Speed Wind Gust Humidity Rainfall Rate (Hourly) solar Conditions
00:04 46.9 °F 43.9 °F 29.93 in SW 13.0 mph 20.0 mph 89 % 0.00 in 0 W/m2
00:14 46.9 °F 43.9 °F 29.93 in SSW 9.0 mph 13.0 mph 89 % 0.00 in 0 W/m2
00:19 46.8 °F 43.7 °F 29.92 in SSW 12.0 mph 20.0 mph 89 % 0.00 in 0 W/m2
00:24 46.6 °F 43.8 °F 29.91 in SSW 13.0 mph 21.0 mph 90 % 0.00 in 0 W/m2
00:29 46.4 °F 43.6 °F 29.91 in SW 12.0 mph 18.0 mph 90 % 0.00 in 0 W/m2
00:34 46.4 °F 43.6 °F 29.91 in SW 11.0 mph 15.0 mph 90 % 0.00 in 0 W/m2
00:39 46.4 °F 43.6 °F 29.90 in SW 12.0 mph 18.0 mph 90 % 0.00 in 0 W/m2
00:44 46.4 °F 43.9 °F 29.90 in SW 11.0 mph 16.0 mph 91 % 0.00 in 0 W/m2
00:49 46.4 °F 43.9 °F 29.90 in SW 10.0 mph 15.0 mph 91 % 0.00 in 0 W/m2
00:54 46.4 °F 43.9 °F 29.89 in WSW 9.0 mph 13.0 mph 91 % 0.00 in 0 W/m2
00:59 46.6 °F 44.1 °F 29.89 in SW 11.0 mph 15.0 mph 91 % 0.00 in 0 W/m2
01:04 46.8 °F 44.3 °F 29.88 in SW 9.0 mph 13.0 mph 91 % 0.01 in 0 W/m2
01:09 46.8 °F 44.3 °F 29.88 in SW 9.0 mph 14.0 mph 91 % 0.01 in 0 W/m2
01:14 46.8 °F 44.3 °F 29.87 in SW 11.0 mph 16.0 mph 91 % 0.01 in 0 W/m2
01:19 46.8 °F 44.3 °F 29.87 in SW 9.0 mph 18.0 mph 91 % 0.01 in 0 W/m2
01:24 46.9 °F 44.4 °F 29.87 in SW 9.0 mph 16.0 mph 91 % 0.01 in 0 W/m2
01:29 46.9 °F 44.7 °F 29.86 in SW 9.0 mph 13.0 mph 92 % 0.02 in 0 W/m2
01:34 47.1 °F 44.9 °F 29.86 in SW 9.0 mph 13.0 mph 92 % 0.02 in 0 W/m2
01:39 47.1 °F 44.9 °F 29.86 in SW 8.0 mph 15.0 mph 92 % 0.02 in 0 W/m2
01:44 47.3 °F 45.1 °F 29.85 in SW 9.0 mph 12.0 mph 92 % 0.02 in 0 W/m2
01:49 47.5 °F 45.6 °F 29.85 in SW 10.0 mph 16.0 mph 93 % 0.02 in 0 W/m2
01:54 47.8 °F 45.9 °F 29.85 in WSW 11.0 mph 23.0 mph 93 % 0.02 in 0 W/m2
01:59 48.2 °F 46.3 °F 29.84 in WSW 11.0 mph 14.0 mph 93 % 0.02 in 0 W/m2
02:04 48.6 °F 46.3 °F 29.84 in WSW 12.0 mph 19.0 mph 92 % 0.01 in 0 W/m2
02:09 48.7 °F 46.5 °F 29.83 in WSW 13.0 mph 20.0 mph 92 % 0.02 in 0 W/m2
02:14 48.9 °F 46.7 °F 29.83 in WSW 10.0 mph 16.0 mph 92 % 0.02 in 0 W/m2
02:19 48.9 °F 46.7 °F 29.83 in WSW 14.0 mph 21.0 mph 92 % 0.02 in 0 W/m2
02:24 48.9 °F 46.7 °F 29.83 in West 14.0 mph 25.0 mph 92 % 0.02 in 0 W/m2
02:29 49.1 °F 46.9 °F 29.83 in WSW 13.0 mph 22.0 mph 92 % 0.01 in 0 W/m2
02:34 48.9 °F 46.7 °F 29.83 in WSW 16.0 mph 24.0 mph 92 % 0.01 in 0 W/m2
02:39 48.9 °F 46.7 °F 29.83 in West 10.0 mph 18.0 mph 92 % 0.01 in 0 W/m2
02:44 48.7 °F 46.5 °F 29.83 in West 10.0 mph 20.0 mph 92 % 0.01 in 0 W/m2
02:49 48.6 °F 46.1 °F 29.83 in West 17.0 mph 24.0 mph 91 % 0.01 in 0 W/m2
02:54 48.4 °F 45.6 °F 29.83 in West 13.0 mph 22.0 mph 90 % 0.01 in 0 W/m2
02:59 48.4 °F 45.3 °F 29.83 in West 15.0 mph 22.0 mph 89 % 0.01 in 0 W/m2
03:05 48.4 °F 45.0 °F 29.83 in West 13.0 mph 23.0 mph 88 % 0.01 in 0 W/m2
03:10 48.6 °F 45.2 °F 29.83 in West 14.0 mph 27.0 mph 88 % 0.00 in 0 W/m2
03:15 48.4 °F 45.0 °F 29.83 in West 10.0 mph 18.0 mph 88 % 0.00 in 0 W/m2
03:20 48.4 °F 44.7 °F 29.83 in WNW 12.0 mph 21.0 mph 87 % 0.00 in 0 W/m2
03:21 48.2 °F 44.5 °F 29.83 in WNW 11.0 mph 18.0 mph 87 % 0.00 in 0 W/m2
03:26 48.2 °F 44.5 °F 29.83 in West 11.0 mph 18.0 mph 87 % 0.00 in 0 W/m2
03:31 48.2 °F 44.5 °F 29.83 in West 12.0 mph 19.0 mph 87 % 0.00 in 0 W/m2
03:36 48.2 °F 44.5 °F 29.82 in West 9.0 mph 16.0 mph 87 % 0.00 in 0 W/m2
03:41 48.0 °F 44.3 °F 29.83 in WNW 9.0 mph 19.0 mph 87 % 0.00 in 0 W/m2
03:46 48.2 °F 44.5 °F 29.82 in West 12.0 mph 21.0 mph 87 % 0.00 in 0 W/m2
03:51 48.0 °F 44.3 °F 29.82 in West 10.0 mph 16.0 mph 87 % 0.00 in 0 W/m2
03:56 48.0 °F 44.3 °F 29.82 in West 9.0 mph 15.0 mph 87 % 0.00 in 0 W/m2
04:01 48.0 °F 44.3 °F 29.82 in West 9.0 mph 15.0 mph 87 % 0.00 in 0 W/m2
04:06 48.0 °F 44.3 °F 29.82 in West 11.0 mph 19.0 mph 87 % 0.00 in 0 W/m2
04:11 48.0 °F 44.3 °F 29.81 in West 10.0 mph 15.0 mph 87 % 0.00 in 0 W/m2
04:16 48.0 °F 44.3 °F 29.81 in West 10.0 mph 19.0 mph 87 % 0.00 in 0 W/m2
04:21 48.0 °F 44.3 °F 29.81 in West 11.0 mph 19.0 mph 87 % 0.00 in 0 W/m2
04:26 48.0 °F 44.0 °F 29.81 in West 12.0 mph 21.0 mph 86 % 0.00 in 0 W/m2
04:31 48.2 °F 44.2 °F 29.81 in West 13.0 mph 24.0 mph 86 % 0.00 in 0 W/m2
04:36 48.0 °F 44.0 °F 29.81 in West 9.0 mph 14.0 mph 86 % 0.00 in 0 W/m2
04:41 48.0 °F 44.0 °F 29.81 in West 15.0 mph 23.0 mph 86 % 0.00 in 0 W/m2
04:46 48.0 °F 44.0 °F 29.81 in West 12.0 mph 19.0 mph 86 % 0.00 in 0 W/m2
04:51 48.0 °F 44.0 °F 29.81 in West 13.0 mph 23.0 mph 86 % 0.00 in 0 W/m2
04:56 47.8 °F 43.9 °F 29.81 in West 12.0 mph 19.0 mph 86 % 0.00 in 0 W/m2
05:01 47.8 °F 43.9 °F 29.81 in West 15.0 mph 23.0 mph 86 % 0.00 in 0 W/m2
05:06 47.8 °F 43.9 °F 29.81 in WNW 12.0 mph 20.0 mph 86 % 0.00 in 0 W/m2
05:11 47.5 °F 43.8 °F 29.81 in NW 9.0 mph 15.0 mph 87 % 0.01 in 0 W/m2
05:16 46.9 °F 43.6 °F 29.81 in WNW 8.0 mph 12.0 mph 88 % 0.01 in 0 W/m2
05:21 46.6 °F 43.5 °F 29.81 in WNW 8.0 mph 12.0 mph 89 % 0.02 in 0 W/m2
05:22 46.6 °F 43.5 °F 29.81 in WNW 8.0 mph 12.0 mph 89 % 0.02 in 0 W/m2
05:27 46.2 °F 43.2 °F 29.81 in WNW 9.0 mph 16.0 mph 89 % 0.02 in 0 W/m2
05:32 46.0 °F 43.3 °F 29.81 in WNW 8.0 mph 13.0 mph 90 % 0.02 in 0 W/m2
05:37 45.9 °F 43.1 °F 29.81 in WNW 4.0 mph 8.0 mph 90 % 0.02 in 0 W/m2
05:42 45.7 °F 42.9 °F 29.81 in West 3.0 mph 6.0 mph 90 % 0.02 in 0 W/m2
05:47 45.5 °F 42.7 °F 29.81 in West 2.0 mph 5.0 mph 90 % 0.02 in 0 W/m2
05:52 45.3 °F 42.8 °F 29.81 in WSW 5.0 mph 10.0 mph 91 % 0.02 in 0 W/m2
05:57 45.3 °F 42.8 °F 29.81 in WNW 8.0 mph 13.0 mph 91 % 0.02 in 0 W/m2
06:02 45.3 °F 42.8 °F 29.81 in WNW 7.0 mph 13.0 mph 91 % 0.02 in 0 W/m2
06:12 45.1 °F 42.4 °F 29.81 in WNW 7.0 mph 10.0 mph 90 % 0.01 in 0 W/m2
06:17 45.0 °F 41.9 °F 29.81 in West 7.0 mph 12.0 mph 89 % 0.01 in 0 W/m2
06:22 45.0 °F 41.9 °F 29.81 in West 7.0 mph 11.0 mph 89 % 0.00 in 0 W/m2
06:27 45.1 °F 42.1 °F 29.81 in West 9.0 mph 14.0 mph 89 % 0.00 in 0 W/m2
06:32 45.1 °F 41.8 °F 29.81 in WNW 8.0 mph 10.0 mph 88 % 0.00 in 0 W/m2
06:37 45.1 °F 41.8 °F 29.81 in WNW 9.0 mph 13.0 mph 88 % 0.00 in 0 W/m2
06:42 45.3 °F 42.0 °F 29.81 in West 5.0 mph 10.0 mph 88 % 0.00 in 0 W/m2
06:47 45.3 °F 42.0 °F 29.81 in West 7.0 mph 10.0 mph 88 % 0.00 in 0 W/m2
06:52 45.3 °F 42.0 °F 29.81 in WNW 6.0 mph 12.0 mph 88 % 0.00 in 0 W/m2
07:00 45.5 °F 42.2 °F 29.81 in West 6.0 mph 11.0 mph 88 % 0.00 in 0 W/m2
07:05 45.5 °F 42.2 °F 29.81 in West 7.0 mph 11.0 mph 88 % 0.00 in 0 W/m2
07:10 45.5 °F 42.2 °F 29.81 in WNW 7.0 mph 11.0 mph 88 % 0.00 in 0 W/m2
07:15 45.7 °F 42.0 °F 29.81 in West 6.0 mph 10.0 mph 87 % 0.00 in 0 W/m2
07:20 45.7 °F 42.3 °F 29.81 in West 9.0 mph 14.0 mph 88 % 0.00 in 0 W/m2
07:25 45.7 °F 42.3 °F 29.81 in WNW 5.0 mph 8.0 mph 88 % 0.00 in 0 W/m2
07:30 45.5 °F 42.4 °F 29.81 in WNW 5.0 mph 10.0 mph 89 % 0.00 in 0 W/m2
07:35 45.5 °F 42.4 °F 29.80 in WNW 6.0 mph 9.0 mph 89 % 0.00 in 0 W/m2
07:40 45.3 °F 42.3 °F 29.80 in West 6.0 mph 10.0 mph 89 % 0.00 in 0 W/m2
07:45 45.3 °F 42.6 °F 29.80 in West 6.0 mph 9.0 mph 90 % 0.00 in 0 W/m2
07:50 45.3 °F 42.3 °F 29.80 in WNW 8.0 mph 13.0 mph 89 % 0.00 in 0 W/m2
07:55 45.3 °F 42.6 °F 29.80 in NW 7.0 mph 11.0 mph 90 % 0.00 in 0 W/m2
08:00 45.3 °F 42.6 °F 29.81 in NW 7.0 mph 14.0 mph 90 % 0.02 in 0 W/m2
08:05 45.1 °F 42.4 °F 29.81 in WNW 7.0 mph 12.0 mph 90 % 0.02 in 0 W/m2
08:10 45.0 °F 42.2 °F 29.81 in WNW 9.0 mph 23.0 mph 90 % 0.02 in 0 W/m2
08:15 44.4 °F 41.7 °F 29.81 in WNW 13.0 mph 19.0 mph 90 % 0.02 in 0 W/m2
08:20 43.9 °F 40.8 °F 29.81 in West 14.0 mph 23.0 mph 89 % 0.03 in 5 W/m2
08:25 43.3 °F 40.0 °F 29.81 in West 12.0 mph 21.0 mph 88 % 0.03 in 9 W/m2
08:31 43.2 °F 40.1 °F 29.81 in West 13.0 mph 19.0 mph 89 % 0.03 in 12 W/m2
08:36 43.2 °F 39.8 °F 29.80 in West 11.0 mph 21.0 mph 88 % 0.03 in 14 W/m2
08:41 43.0 °F 39.7 °F 29.80 in WNW 9.0 mph 16.0 mph 88 % 0.03 in 21 W/m2
08:46 43.2 °F 39.8 °F 29.80 in WNW 11.0 mph 19.0 mph 88 % 0.03 in 32 W/m2
08:51 43.2 °F 39.8 °F 29.80 in West 8.0 mph 14.0 mph 88 % 0.03 in 37 W/m2
08:56 43.3 °F 40.0 °F 29.80 in West 10.0 mph 15.0 mph 88 % 0.03 in 39 W/m2
09:01 43.5 °F 40.2 °F 29.79 in WNW 11.0 mph 18.0 mph 88 % 0.01 in 47 W/m2
09:06 43.5 °F 40.2 °F 29.79 in WNW 8.0 mph 13.0 mph 88 % 0.01 in 51 W/m2
09:11 43.7 °F 40.7 °F 29.79 in West 5.0 mph 8.0 mph 89 % 0.01 in 44 W/m2
09:16 43.7 °F 40.7 °F 29.79 in West 6.0 mph 10.0 mph 89 % 0.01 in 63 W/m2
09:21 43.9 °F 40.8 °F 29.79 in West 3.0 mph 6.0 mph 89 % 0.00 in 40 W/m2
09:26 43.9 °F 40.8 °F 29.79 in WSW 5.0 mph 10.0 mph 89 % 0.00 in 54 W/m2
09:31 43.9 °F 40.8 °F 29.78 in West 4.0 mph 9.0 mph 89 % 0.00 in 40 W/m2
09:36 44.1 °F 41.3 °F 29.78 in West 6.0 mph 11.0 mph 90 % 0.00 in 32 W/m2
09:41 44.4 °F 41.4 °F 29.78 in West 8.0 mph 14.0 mph 89 % 0.00 in 65 W/m2
09:46 44.8 °F 41.4 °F 29.78 in West 10.0 mph 16.0 mph 88 % 0.00 in 56 W/m2
09:51 45.0 °F 41.3 °F 29.78 in West 8.0 mph 15.0 mph 87 % 0.00 in 67 W/m2
09:56 45.1 °F 41.5 °F 29.78 in WNW 10.0 mph 18.0 mph 87 % 0.00 in 86 W/m2
10:01 45.1 °F 41.2 °F 29.78 in WNW 9.0 mph 13.0 mph 86 % 0.00 in 76 W/m2
10:06 45.1 °F 41.2 °F 29.78 in WNW 10.0 mph 16.0 mph 86 % 0.00 in 56 W/m2
10:11 45.1 °F 41.2 °F 29.78 in West 11.0 mph 22.0 mph 86 % 0.00 in 60 W/m2
10:16 45.3 °F 41.4 °F 29.78 in West 10.0 mph 18.0 mph 86 % 0.00 in 79 W/m2
10:21 45.3 °F 41.1 °F 29.78 in WSW 11.0 mph 19.0 mph 85 % 0.00 in 88 W/m2
10:26 45.3 °F 41.1 °F 29.78 in West 12.0 mph 20.0 mph 85 % 0.00 in 97 W/m2
10:31 45.1 °F 40.6 °F 29.78 in West 13.0 mph 19.0 mph 84 % 0.00 in 98 W/m2
10:36 45.1 °F 40.6 °F 29.77 in West 11.0 mph 16.0 mph 84 % 0.00 in 111 W/m2
10:42 45.3 °F 40.5 °F 29.77 in West 16.0 mph 24.0 mph 83 % 0.00 in 114 W/m2
10:47 45.3 °F 40.5 °F 29.77 in West 12.0 mph 20.0 mph 83 % 0.00 in 98 W/m2
10:52 45.3 °F 40.5 °F 29.77 in West 14.0 mph 27.0 mph 83 % 0.00 in 111 W/m2
10:57 45.3 °F 40.8 °F 29.77 in West 12.0 mph 16.0 mph 84 % 0.00 in 113 W/m2
11:02 45.3 °F 40.8 °F 29.76 in West 11.0 mph 18.0 mph 84 % 0.00 in 113 W/m2
11:07 45.3 °F 40.8 °F 29.76 in West 13.0 mph 24.0 mph 84 % 0.00 in 102 W/m2
11:12 45.3 °F 40.8 °F 29.76 in West 17.0 mph 24.0 mph 84 % 0.00 in 132 W/m2
11:17 45.5 °F 40.9 °F 29.76 in West 11.0 mph 19.0 mph 84 % 0.00 in 120 W/m2
11:22 45.5 °F 40.9 °F 29.76 in West 14.0 mph 22.0 mph 84 % 0.00 in 109 W/m2
11:27 45.5 °F 40.6 °F 29.76 in West 17.0 mph 26.0 mph 83 % 0.00 in 90 W/m2
11:32 45.3 °F 40.1 °F 29.75 in West 18.0 mph 25.0 mph 82 % 0.00 in 90 W/m2
11:37 45.1 °F 39.7 °F 29.75 in West 16.0 mph 24.0 mph 81 % 0.00 in 93 W/m2
11:42 45.1 °F 39.7 °F 29.75 in West 18.0 mph 31.0 mph 81 % 0.00 in 111 W/m2
11:47 45.1 °F 40.0 °F 29.75 in West 20.0 mph 34.0 mph 82 % 0.00 in 109 W/m2
11:52 45.1 °F 40.0 °F 29.75 in West 17.0 mph 24.0 mph 82 % 0.00 in 109 W/m2
11:57 45.1 °F 40.3 °F 29.75 in West 13.0 mph 21.0 mph 83 % 0.00 in 107 W/m2
12:02 45.1 °F 40.3 °F 29.74 in West 15.0 mph 25.0 mph 83 % 0.00 in 107 W/m2
12:07 45.3 °F 40.5 °F 29.74 in West 16.0 mph 28.0 mph 83 % 0.00 in 107 W/m2
12:12 45.5 °F 40.0 °F 29.74 in WNW 16.0 mph 26.0 mph 81 % 0.00 in 81 W/m2
12:22 45.7 °F 40.2 °F 29.74 in West 19.0 mph 29.0 mph 81 % 0.00 in 37 W/m2
12:27 45.1 °F 40.3 °F 29.74 in West 18.0 mph 27.0 mph 83 % 0.01 in 60 W/m2
12:32 44.4 °F 40.2 °F 29.73 in West 17.0 mph 26.0 mph 85 % 0.01 in 102 W/m2
12:37 44.2 °F 40.3 °F 29.73 in West 14.0 mph 21.0 mph 86 % 0.01 in 113 W/m2
12:42 44.4 °F 40.8 °F 29.73 in WNW 12.0 mph 19.0 mph 87 % 0.01 in 172 W/m2
12:47 44.8 °F 41.1 °F 29.73 in WNW 10.0 mph 18.0 mph 87 % 0.01 in 149 W/m2
12:52 45.0 °F 41.3 °F 29.72 in WNW 16.0 mph 30.0 mph 87 % 0.01 in 104 W/m2
12:57 45.0 °F 41.3 °F 29.72 in WNW 13.0 mph 23.0 mph 87 % 0.01 in 105 W/m2
13:02 45.0 °F 41.3 °F 29.72 in West 16.0 mph 29.0 mph 87 % 0.01 in 74 W/m2
13:07 44.8 °F 40.8 °F 29.73 in West 17.0 mph 25.0 mph 86 % 0.01 in 142 W/m2
13:12 44.8 °F 40.8 °F 29.72 in West 17.0 mph 25.0 mph 86 % 0.01 in 183 W/m2
13:17 45.0 °F 40.7 °F 29.72 in West 18.0 mph 27.0 mph 85 % 0.01 in 178 W/m2
13:22 45.3 °F 40.8 °F 29.72 in West 17.0 mph 32.0 mph 84 % 0.01 in 195 W/m2
13:32 45.7 °F 40.5 °F 29.72 in West 20.0 mph 28.0 mph 82 % 0.00 in 144 W/m2
13:37 45.7 °F 40.2 °F 29.71 in West 19.0 mph 28.0 mph 81 % 0.00 in 120 W/m2
13:42 45.5 °F 40.0 °F 29.72 in WNW 17.0 mph 29.0 mph 81 % 0.00 in 100 W/m2
13:47 45.3 °F 39.8 °F 29.72 in WNW 17.0 mph 26.0 mph 81 % 0.00 in 76 W/m2
13:52 45.0 °F 39.8 °F 29.72 in West 15.0 mph 22.0 mph 82 % 0.00 in 93 W/m2
13:57 44.6 °F 39.4 °F 29.72 in West 18.0 mph 27.0 mph 82 % 0.00 in 98 W/m2
14:02 44.2 °F 39.1 °F 29.72 in WNW 15.0 mph 23.0 mph 82 % 0.00 in 95 W/m2
14:07 44.2 °F 39.1 °F 29.72 in WNW 17.0 mph 30.0 mph 82 % 0.00 in 74 W/m2
14:12 44.2 °F 38.8 °F 29.72 in WNW 18.0 mph 24.0 mph 81 % 0.00 in 77 W/m2
14:17 44.2 °F 39.1 °F 29.72 in West 15.0 mph 25.0 mph 82 % 0.00 in 65 W/m2
14:22 44.2 °F 39.1 °F 29.72 in West 14.0 mph 23.0 mph 82 % 0.00 in 58 W/m2
14:27 44.1 °F 38.9 °F 29.72 in West 13.0 mph 21.0 mph 82 % 0.00 in 54 W/m2
14:32 43.9 °F 39.1 °F 29.71 in WNW 16.0 mph 24.0 mph 83 % 0.00 in 46 W/m2
14:37 43.9 °F 39.1 °F 29.71 in West 15.0 mph 26.0 mph 83 % 0.00 in 37 W/m2
14:42 43.7 °F 38.9 °F 29.71 in West 15.0 mph 30.0 mph 83 % 0.00 in 32 W/m2
14:47 43.5 °F 38.7 °F 29.71 in WNW 14.0 mph 21.0 mph 83 % 0.00 in 28 W/m2
14:52 43.5 °F 38.4 °F 29.72 in WNW 12.0 mph 19.0 mph 82 % 0.00 in 23 W/m2
14:57 43.5 °F 38.4 °F 29.72 in West 12.0 mph 18.0 mph 82 % 0.00 in 19 W/m2
15:02 43.5 °F 38.7 °F 29.72 in West 16.0 mph 23.0 mph 83 % 0.00 in 14 W/m2
15:07 43.0 °F 38.2 °F 29.72 in West 15.0 mph 26.0 mph 83 % 0.00 in 16 W/m2
15:12 42.6 °F 38.1 °F 29.72 in West 14.0 mph 23.0 mph 84 % 0.00 in 16 W/m2
15:17 42.3 °F 37.8 °F 29.72 in West 14.0 mph 22.0 mph 84 % 0.00 in 14 W/m2
15:23 42.1 °F 37.9 °F 29.72 in WNW 10.0 mph 18.0 mph 85 % 0.00 in 12 W/m2
15:28 42.1 °F 37.9 °F 29.72 in WNW 11.0 mph 15.0 mph 85 % 0.00 in 11 W/m2
15:33 41.9 °F 37.7 °F 29.72 in WNW 13.0 mph 19.0 mph 85 % 0.00 in 9 W/m2
15:38 41.9 °F 37.7 °F 29.71 in WNW 13.0 mph 26.0 mph 85 % 0.00 in 7 W/m2
15:43 42.1 °F 37.3 °F 29.72 in WNW 14.0 mph 23.0 mph 83 % 0.00 in 5 W/m2
15:48 42.1 °F 37.0 °F 29.72 in WNW 13.0 mph 24.0 mph 82 % 0.00 in 5 W/m2
15:53 41.9 °F 36.8 °F 29.71 in WNW 14.0 mph 22.0 mph 82 % 0.00 in 0 W/m2
15:58 41.7 °F 36.6 °F 29.71 in West 14.0 mph 24.0 mph 82 % 0.00 in 0 W/m2
16:03 41.7 °F 36.9 °F 29.71 in West 14.0 mph 23.0 mph 83 % 0.00 in 0 W/m2
16:08 41.7 °F 36.9 °F 29.70 in West 14.0 mph 21.0 mph 83 % 0.00 in 0 W/m2
16:13 41.7 °F 37.2 °F 29.70 in West 14.0 mph 21.0 mph 84 % 0.00 in 0 W/m2
16:18 41.7 °F 37.2 °F 29.70 in West 13.0 mph 22.0 mph 84 % 0.00 in 0 W/m2
16:24 41.9 °F 37.1 °F 29.70 in West 12.0 mph 19.0 mph 83 % 0.00 in 0 W/m2
16:29 41.9 °F 37.1 °F 29.70 in West 15.0 mph 25.0 mph 83 % 0.00 in 0 W/m2
16:34 42.1 °F 37.3 °F 29.70 in West 16.0 mph 25.0 mph 83 % 0.00 in 0 W/m2
16:39 42.1 °F 37.0 °F 29.70 in West 17.0 mph 24.0 mph 82 % 0.00 in 0 W/m2
16:44 42.1 °F 37.0 °F 29.70 in West 13.0 mph 23.0 mph 82 % 0.00 in 0 W/m2
16:49 42.1 °F 37.0 °F 29.70 in West 16.0 mph 24.0 mph 82 % 0.00 in 0 W/m2
16:54 42.1 °F 37.0 °F 29.70 in WNW 17.0 mph 28.0 mph 82 % 0.00 in 0 W/m2
16:59 42.1 °F 37.0 °F 29.70 in WNW 15.0 mph 24.0 mph 82 % 0.00 in 0 W/m2
17:04 42.1 °F 37.0 °F 29.70 in WNW 20.0 mph 30.0 mph 82 % 0.00 in 0 W/m2
17:09 42.1 °F 37.0 °F 29.72 in WNW 19.0 mph 28.0 mph 82 % 0.00 in 0 W/m2
17:14 41.4 °F 36.6 °F 29.71 in WNW 13.0 mph 21.0 mph 83 % 0.00 in 0 W/m2
17:19 40.8 °F 36.7 °F 29.71 in WNW 14.0 mph 22.0 mph 85 % 0.00 in 0 W/m2
17:24 40.5 °F 36.6 °F 29.71 in WNW 12.0 mph 20.0 mph 86 % 0.00 in 0 W/m2
17:29 39.9 °F 36.1 °F 29.71 in NW 12.0 mph 16.0 mph 86 % 0.00 in 0 W/m2
17:34 39.9 °F 36.1 °F 29.71 in WNW 9.0 mph 14.0 mph 86 % 0.00 in 0 W/m2
17:39 39.7 °F 36.2 °F 29.71 in WNW 10.0 mph 14.0 mph 87 % 0.00 in 0 W/m2
17:44 39.7 °F 36.2 °F 29.71 in WNW 10.0 mph 18.0 mph 87 % 0.00 in 0 W/m2
17:49 39.6 °F 36.0 °F 29.70 in West 12.0 mph 15.0 mph 87 % 0.00 in 0 W/m2
17:54 39.7 °F 36.2 °F 29.71 in WNW 9.0 mph 14.0 mph 87 % 0.00 in 0 W/m2
17:59 39.7 °F 36.2 °F 29.72 in NW 9.0 mph 15.0 mph 87 % 0.00 in 0 W/m2
18:04 39.9 °F 36.4 °F 29.72 in WNW 16.0 mph 31.0 mph 87 % 0.00 in 0 W/m2
18:09 40.1 °F 36.2 °F 29.72 in WNW 15.0 mph 28.0 mph 86 % 0.00 in 0 W/m2
18:14 40.1 °F 36.0 °F 29.72 in WNW 10.0 mph 15.0 mph 85 % 0.00 in 0 W/m2
18:19 39.9 °F 35.8 °F 29.72 in WNW 10.0 mph 19.0 mph 85 % 0.00 in 0 W/m2
18:24 39.9 °F 35.8 °F 29.71 in WNW 12.0 mph 18.0 mph 85 % 0.00 in 0 W/m2
18:29 39.9 °F 35.8 °F 29.71 in WNW 16.0 mph 24.0 mph 85 % 0.00 in 0 W/m2
18:34 39.9 °F 36.1 °F 29.71 in West 13.0 mph 21.0 mph 86 % 0.00 in 0 W/m2
18:39 39.9 °F 36.1 °F 29.71 in WNW 12.0 mph 21.0 mph 86 % 0.00 in 0 W/m2
18:44 39.7 °F 35.6 °F 29.72 in WNW 13.0 mph 19.0 mph 85 % 0.00 in 0 W/m2
18:49 39.7 °F 35.6 °F 29.72 in WNW 14.0 mph 21.0 mph 85 % 0.00 in 0 W/m2
18:54 39.7 °F 35.6 °F 29.72 in West 17.0 mph 24.0 mph 85 % 0.00 in 0 W/m2
18:59 39.7 °F 35.6 °F 29.72 in WNW 14.0 mph 22.0 mph 85 % 0.00 in 0 W/m2
19:04 39.6 °F 35.4 °F 29.72 in WNW 12.0 mph 18.0 mph 85 % 0.00 in 0 W/m2
19:09 39.6 °F 35.4 °F 29.71 in WNW 13.0 mph 22.0 mph 85 % 0.00 in 0 W/m2
19:14 39.6 °F 35.4 °F 29.71 in West 14.0 mph 22.0 mph 85 % 0.00 in 0 W/m2
19:19 39.6 °F 35.4 °F 29.71 in West 12.0 mph 19.0 mph 85 % 0.00 in 0 W/m2
19:24 39.6 °F 35.4 °F 29.71 in WNW 13.0 mph 19.0 mph 85 % 0.00 in 0 W/m2
19:29 39.9 °F 35.8 °F 29.70 in West 14.0 mph 20.0 mph 85 % 0.00 in 0 W/m2
19:34 40.3 °F 35.8 °F 29.70 in WNW 15.0 mph 21.0 mph 84 % 0.00 in 0 W/m2
19:39 40.5 °F 36.0 °F 29.71 in West 12.0 mph 20.0 mph 84 % 0.00 in 0 W/m2
19:45 40.6 °F 36.2 °F 29.71 in West 11.0 mph 16.0 mph 84 % 0.00 in 0 W/m2
19:50 40.5 °F 36.0 °F 29.71 in West 11.0 mph 15.0 mph 84 % 0.00 in 0 W/m2
19:55 40.3 °F 35.8 °F 29.70 in West 11.0 mph 16.0 mph 84 % 0.00 in 0 W/m2
19:56 40.3 °F 35.8 °F 29.70 in West 10.0 mph 16.0 mph 84 % 0.00 in 0 W/m2
20:01 40.1 °F 35.7 °F 29.71 in West 11.0 mph 19.0 mph 84 % 0.00 in 0 W/m2
20:06 39.9 °F 35.8 °F 29.71 in West 10.0 mph 16.0 mph 85 % 0.00 in 0 W/m2
20:11 39.9 °F 35.8 °F 29.71 in West 12.0 mph 19.0 mph 85 % 0.00 in 0 W/m2
20:16 39.7 °F 35.9 °F 29.72 in West 11.0 mph 16.0 mph 86 % 0.00 in 0 W/m2
20:21 39.7 °F 35.9 °F 29.72 in West 11.0 mph 18.0 mph 86 % 0.00 in 0 W/m2
20:26 39.7 °F 35.9 °F 29.72 in West 9.0 mph 16.0 mph 86 % 0.00 in 0 W/m2
20:31 39.6 °F 35.7 °F 29.72 in West 6.0 mph 9.0 mph 86 % 0.00 in 0 W/m2
20:36 39.4 °F 35.8 °F 29.72 in West 6.0 mph 8.0 mph 87 % 0.00 in 0 W/m2
20:41 39.2 °F 35.7 °F 29.72 in West 5.0 mph 8.0 mph 87 % 0.00 in 0 W/m2
20:46 39.0 °F 35.5 °F 29.72 in WNW 6.0 mph 12.0 mph 87 % 0.00 in 0 W/m2
20:51 39.0 °F 35.5 °F 29.71 in West 6.0 mph 9.0 mph 87 % 0.00 in 0 W/m2
20:56 38.8 °F 35.3 °F 29.72 in West 6.0 mph 10.0 mph 87 % 0.00 in 0 W/m2
21:01 38.8 °F 35.6 °F 29.71 in West 5.0 mph 7.0 mph 88 % 0.00 in 0 W/m2
21:06 38.8 °F 35.6 °F 29.71 in WNW 7.0 mph 14.0 mph 88 % 0.00 in 0 W/m2
21:11 39.4 °F 36.4 °F 29.71 in WNW 13.0 mph 18.0 mph 89 % 0.00 in 0 W/m2
21:16 39.7 °F 36.5 °F 29.71 in WNW 10.0 mph 15.0 mph 88 % 0.00 in 0 W/m2
21:21 39.9 °F 36.7 °F 29.71 in WNW 12.0 mph 20.0 mph 88 % 0.00 in 0 W/m2
21:26 40.1 °F 36.8 °F 29.71 in WNW 10.0 mph 18.0 mph 88 % 0.00 in 0 W/m2
21:31 40.3 °F 36.7 °F 29.71 in WNW 12.0 mph 19.0 mph 87 % 0.00 in 0 W/m2
21:36 40.5 °F 36.9 °F 29.70 in WNW 12.0 mph 16.0 mph 87 % 0.00 in 0 W/m2
21:41 40.5 °F 36.9 °F 29.70 in WNW 11.0 mph 21.0 mph 87 % 0.00 in 0 W/m2
21:47 40.6 °F 37.1 °F 29.70 in WNW 10.0 mph 15.0 mph 87 % 0.00 in 0 W/m2
21:52 40.5 °F 36.9 °F 29.71 in WNW 11.0 mph 19.0 mph 87 % 0.00 in 0 W/m2
21:57 40.6 °F 36.8 °F 29.71 in WNW 12.0 mph 19.0 mph 86 % 0.00 in 0 W/m2
22:02 40.6 °F 36.8 °F 29.70 in WNW 12.0 mph 20.0 mph 86 % 0.00 in 0 W/m2
22:07 40.6 °F 36.8 °F 29.70 in WNW 11.0 mph 19.0 mph 86 % 0.00 in 0 W/m2
22:12 40.6 °F 36.8 °F 29.71 in WNW 10.0 mph 16.0 mph 86 % 0.00 in 0 W/m2
22:17 40.5 °F 36.6 °F 29.71 in WNW 10.0 mph 18.0 mph 86 % 0.00 in 0 W/m2
22:22 40.3 °F 36.4 °F 29.71 in WNW 11.0 mph 19.0 mph 86 % 0.00 in 0 W/m2
22:27 40.3 °F 36.4 °F 29.71 in WNW 9.0 mph 13.0 mph 86 % 0.00 in 0 W/m2
22:32 39.9 °F 36.1 °F 29.71 in WNW 8.0 mph 10.0 mph 86 % 0.00 in 0 W/m2
22:37 39.9 °F 36.1 °F 29.71 in WNW 9.0 mph 16.0 mph 86 % 0.00 in 0 W/m2
22:42 39.7 °F 35.9 °F 29.71 in WNW 9.0 mph 13.0 mph 86 % 0.00 in 0 W/m2
22:47 39.7 °F 35.9 °F 29.71 in WNW 8.0 mph 11.0 mph 86 % 0.00 in 0 W/m2
22:52 39.7 °F 36.2 °F 29.71 in WNW 8.0 mph 12.0 mph 87 % 0.00 in 0 W/m2
22:57 39.7 °F 36.2 °F 29.71 in WNW 9.0 mph 13.0 mph 87 % 0.00 in 0 W/m2
23:02 39.7 °F 36.2 °F 29.71 in WNW 8.0 mph 10.0 mph 87 % 0.00 in 0 W/m2
23:03 39.7 °F 36.2 °F 29.71 in WNW 8.0 mph 12.0 mph 87 % 0.00 in 0 W/m2
23:08 39.7 °F 36.5 °F 29.71 in WNW 7.0 mph 10.0 mph 88 % 0.00 in 0 W/m2
23:14 39.6 °F 36.0 °F 29.72 in West 5.0 mph 8.0 mph 87 % 0.00 in 0 W/m2
23:18 39.4 °F 36.1 °F 29.72 in West 6.0 mph 11.0 mph 88 % 0.00 in 0 W/m2
23:24 39.2 °F 35.9 °F 29.72 in West 9.0 mph 14.0 mph 88 % 0.00 in 0 W/m2
23:29 39.2 °F 36.2 °F 29.72 in WNW 8.0 mph 13.0 mph 89 % 0.00 in 0 W/m2
23:34 39.4 °F 36.4 °F 29.72 in WNW 9.0 mph 12.0 mph 89 % 0.00 in 0 W/m2
23:39 39.4 °F 36.4 °F 29.72 in WNW 8.0 mph 12.0 mph 89 % 0.00 in 0 W/m2
23:44 39.4 °F 36.4 °F 29.72 in WNW 7.0 mph 10.0 mph 89 % 0.00 in 0 W/m2
23:49 39.4 °F 36.4 °F 29.72 in NW 6.0 mph 10.0 mph 89 % 0.00 in 0 W/m2
23:54 39.2 °F 36.2 °F 29.72 in NW 6.0 mph 10.0 mph 89 % 0.00 in 0 W/m2
23:59 39.2 °F 36.2 °F 29.72 in WNW 6.0 mph 8.0 mph 89 % 0.00 in 0 W/m2
Delerius-Weather
Compliments of Weather Underground - 2.25 mb

Data updates at regular intervals.